sensor_id;sensor_type;location;lat;lon;timestamp;P1;durP1;ratioP1;P2;durP2;ratioP2
15126;SDS011;7664;52.008;4.748;2023-04-25T00:00:35;15.00;;;3.95;;
15126;SDS011;7664;52.008;4.748;2023-04-25T00:03:03;8.57;;;2.10;;
15126;SDS011;7664;52.008;4.748;2023-04-25T00:05:35;9.98;;;2.50;;
15126;SDS011;7664;52.008;4.748;2023-04-25T00:08:05;7.45;;;2.70;;
15126;SDS011;7664;52.008;4.748;2023-04-25T00:10:33;14.75;;;2.95;;
15126;SDS011;7664;52.008;4.748;2023-04-25T00:13:02;15.35;;;2.53;;
15126;SDS011;7664;52.008;4.748;2023-04-25T00:15:30;19.38;;;3.40;;
15126;SDS011;7664;52.008;4.748;2023-04-25T00:17:59;9.90;;;2.90;;
15126;SDS011;7664;52.008;4.748;2023-04-25T00:20:27;4.78;;;1.95;;
15126;SDS011;7664;52.008;4.748;2023-04-25T00:22:56;9.75;;;2.05;;
15126;SDS011;7664;52.008;4.748;2023-04-25T00:25:26;8.45;;;2.28;;
15126;SDS011;7664;52.008;4.748;2023-04-25T00:27:55;9.95;;;2.20;;
15126;SDS011;7664;52.008;4.748;2023-04-25T00:30:26;9.00;;;2.25;;
15126;SDS011;7664;52.008;4.748;2023-04-25T00:32:54;11.13;;;2.10;;
15126;SDS011;7664;52.008;4.748;2023-04-25T00:35:25;9.18;;;2.28;;
15126;SDS011;7664;52.008;4.748;2023-04-25T00:37:54;8.77;;;2.22;;
15126;SDS011;7664;52.008;4.748;2023-04-25T00:40:22;4.82;;;1.50;;
15126;SDS011;7664;52.008;4.748;2023-04-25T00:42:52;8.77;;;3.22;;
15126;SDS011;7664;52.008;4.748;2023-04-25T00:45:23;7.50;;;1.73;;
15126;SDS011;7664;52.008;4.748;2023-04-25T00:47:55;13.88;;;2.50;;
15126;SDS011;7664;52.008;4.748;2023-04-25T00:50:23;6.38;;;1.73;;
15126;SDS011;7664;52.008;4.748;2023-04-25T00:53:03;14.32;;;2.40;;
15126;SDS011;7664;52.008;4.748;2023-04-25T00:55:32;8.32;;;2.03;;
15126;SDS011;7664;52.008;4.748;2023-04-25T00:58:04;15.10;;;2.67;;
15126;SDS011;7664;52.008;4.748;2023-04-25T01:00:32;8.00;;;2.63;;
15126;SDS011;7664;52.008;4.748;2023-04-25T01:03:01;11.50;;;2.65;;
15126;SDS011;7664;52.008;4.748;2023-04-25T01:05:31;10.13;;;2.40;;
15126;SDS011;7664;52.008;4.748;2023-04-25T01:07:59;9.13;;;2.13;;
15126;SDS011;7664;52.008;4.748;2023-04-25T01:10:32;8.65;;;1.90;;
15126;SDS011;7664;52.008;4.748;2023-04-25T01:13:01;15.85;;;2.17;;
15126;SDS011;7664;52.008;4.748;2023-04-25T01:15:30;10.10;;;1.50;;
15126;SDS011;7664;52.008;4.748;2023-04-25T01:17:59;9.50;;;2.47;;
15126;SDS011;7664;52.008;4.748;2023-04-25T01:20:28;7.38;;;1.67;;
15126;SDS011;7664;52.008;4.748;2023-04-25T01:22:59;6.88;;;2.05;;
15126;SDS011;7664;52.008;4.748;2023-04-25T01:25:30;11.55;;;2.67;;
15126;SDS011;7664;52.008;4.748;2023-04-25T01:28:03;10.23;;;2.45;;
15126;SDS011;7664;52.008;4.748;2023-04-25T01:30:32;4.57;;;1.70;;
15126;SDS011;7664;52.008;4.748;2023-04-25T01:33:00;6.30;;;2.08;;
15126;SDS011;7664;52.008;4.748;2023-04-25T01:35:29;5.95;;;1.85;;
15126;SDS011;7664;52.008;4.748;2023-04-25T01:38:00;6.20;;;1.88;;
15126;SDS011;7664;52.008;4.748;2023-04-25T01:40:28;7.30;;;2.15;;
15126;SDS011;7664;52.008;4.748;2023-04-25T01:42:57;7.63;;;1.90;;
15126;SDS011;7664;52.008;4.748;2023-04-25T01:45:28;9.13;;;2.20;;
15126;SDS011;7664;52.008;4.748;2023-04-25T01:48:03;9.18;;;1.73;;
15126;SDS011;7664;52.008;4.748;2023-04-25T01:50:31;8.43;;;2.28;;
15126;SDS011;7664;52.008;4.748;2023-04-25T01:53:01;9.25;;;1.73;;
15126;SDS011;7664;52.008;4.748;2023-04-25T01:55:29;8.75;;;1.50;;
15126;SDS011;7664;52.008;4.748;2023-04-25T01:58:03;7.85;;;2.05;;
15126;SDS011;7664;52.008;4.748;2023-04-25T02:00:54;9.57;;;2.33;;
15126;SDS011;7664;52.008;4.748;2023-04-25T02:03:25;11.50;;;2.30;;
15126;SDS011;7664;52.008;4.748;2023-04-25T02:05:55;7.20;;;1.77;;
15126;SDS011;7664;52.008;4.748;2023-04-25T02:08:31;6.63;;;2.20;;
15126;SDS011;7664;52.008;4.748;2023-04-25T02:11:04;7.05;;;1.50;;
15126;SDS011;7664;52.008;4.748;2023-04-25T02:13:40;7.28;;;1.70;;
15126;SDS011;7664;52.008;4.748;2023-04-25T02:16:36;8.63;;;1.83;;
15126;SDS011;7664;52.008;4.748;2023-04-25T02:19:06;10.20;;;2.20;;
15126;SDS011;7664;52.008;4.748;2023-04-25T02:21:34;8.48;;;1.48;;
15126;SDS011;7664;52.008;4.748;2023-04-25T02:24:05;4.32;;;1.58;;
15126;SDS011;7664;52.008;4.748;2023-04-25T02:26:34;5.97;;;1.73;;
15126;SDS011;7664;52.008;4.748;2023-04-25T02:29:07;6.03;;;1.80;;
15126;SDS011;7664;52.008;4.748;2023-04-25T02:31:38;4.53;;;1.90;;
15126;SDS011;7664;52.008;4.748;2023-04-25T02:34:13;12.57;;;2.38;;
15126;SDS011;7664;52.008;4.748;2023-04-25T02:36:42;7.22;;;1.80;;
15126;SDS011;7664;52.008;4.748;2023-04-25T02:39:12;6.43;;;1.60;;
15126;SDS011;7664;52.008;4.748;2023-04-25T02:41:43;8.82;;;1.58;;
15126;SDS011;7664;52.008;4.748;2023-04-25T02:44:11;6.43;;;2.13;;
15126;SDS011;7664;52.008;4.748;2023-04-25T02:46:39;11.05;;;2.72;;
15126;SDS011;7664;52.008;4.748;2023-04-25T02:49:15;7.97;;;2.05;;
15126;SDS011;7664;52.008;4.748;2023-04-25T02:51:50;8.10;;;1.70;;
15126;SDS011;7664;52.008;4.748;2023-04-25T02:54:29;7.60;;;1.83;;
15126;SDS011;7664;52.008;4.748;2023-04-25T02:57:00;4.30;;;1.67;;
15126;SDS011;7664;52.008;4.748;2023-04-25T02:59:35;3.20;;;1.48;;
15126;SDS011;7664;52.008;4.748;2023-04-25T03:02:03;10.18;;;1.90;;
15126;SDS011;7664;52.008;4.748;2023-04-25T03:04:31;5.63;;;3.15;;
15126;SDS011;7664;52.008;4.748;2023-04-25T03:07:01;4.65;;;1.35;;
15126;SDS011;7664;52.008;4.748;2023-04-25T03:09:37;8.10;;;2.00;;
15126;SDS011;7664;52.008;4.748;2023-04-25T03:12:08;3.58;;;0.88;;
15126;SDS011;7664;52.008;4.748;2023-04-25T03:14:36;4.30;;;1.27;;
15126;SDS011;7664;52.008;4.748;2023-04-25T03:17:09;4.70;;;1.90;;
15126;SDS011;7664;52.008;4.748;2023-04-25T03:19:42;8.23;;;1.25;;
15126;SDS011;7664;52.008;4.748;2023-04-25T03:22:11;8.05;;;1.60;;
15126;SDS011;7664;52.008;4.748;2023-04-25T03:24:40;9.02;;;1.98;;
15126;SDS011;7664;52.008;4.748;2023-04-25T03:27:16;4.10;;;1.20;;
15126;SDS011;7664;52.008;4.748;2023-04-25T03:29:46;12.38;;;2.03;;
15126;SDS011;7664;52.008;4.748;2023-04-25T03:32:14;8.73;;;1.80;;
15126;SDS011;7664;52.008;4.748;2023-04-25T03:34:43;4.75;;;1.40;;
15126;SDS011;7664;52.008;4.748;2023-04-25T03:37:16;5.43;;;1.27;;
15126;SDS011;7664;52.008;4.748;2023-04-25T03:39:46;8.77;;;1.23;;
15126;SDS011;7664;52.008;4.748;2023-04-25T03:42:15;11.23;;;1.95;;
15126;SDS011;7664;52.008;4.748;2023-04-25T03:44:46;8.85;;;1.83;;
15126;SDS011;7664;52.008;4.748;2023-04-25T03:47:19;9.38;;;1.63;;
15126;SDS011;7664;52.008;4.748;2023-04-25T03:49:48;6.80;;;1.40;;
15126;SDS011;7664;52.008;4.748;2023-04-25T03:52:20;5.63;;;1.27;;
15126;SDS011;7664;52.008;4.748;2023-04-25T03:54:53;11.52;;;1.73;;
15126;SDS011;7664;52.008;4.748;2023-04-25T03:57:23;5.35;;;1.52;;
15126;SDS011;7664;52.008;4.748;2023-04-25T03:59:52;7.10;;;1.65;;
15126;SDS011;7664;52.008;4.748;2023-04-25T04:02:21;8.65;;;1.52;;
15126;SDS011;7664;52.008;4.748;2023-04-25T04:04:52;4.80;;;1.60;;
15126;SDS011;7664;52.008;4.748;2023-04-25T04:07:22;5.60;;;1.35;;
15126;SDS011;7664;52.008;4.748;2023-04-25T04:09:55;7.68;;;1.90;;
15126;SDS011;7664;52.008;4.748;2023-04-25T04:12:29;7.72;;;1.95;;
15126;SDS011;7664;52.008;4.748;2023-04-25T04:14:58;4.85;;;0.90;;
15126;SDS011;7664;52.008;4.748;2023-04-25T04:17:27;4.82;;;1.35;;
15126;SDS011;7664;52.008;4.748;2023-04-25T04:19:56;8.32;;;1.60;;
15126;SDS011;7664;52.008;4.748;2023-04-25T04:22:33;5.60;;;1.40;;
15126;SDS011;7664;52.008;4.748;2023-04-25T04:25:11;5.03;;;1.10;;
15126;SDS011;7664;52.008;4.748;2023-04-25T04:28:05;4.93;;;2.10;;
15126;SDS011;7664;52.008;4.748;2023-04-25T04:30:58;13.20;;;2.17;;
15126;SDS011;7664;52.008;4.748;2023-04-25T04:33:27;6.43;;;1.58;;
15126;SDS011;7664;52.008;4.748;2023-04-25T04:36:01;4.28;;;1.67;;
15126;SDS011;7664;52.008;4.748;2023-04-25T04:38:34;12.45;;;1.90;;
15126;SDS011;7664;52.008;4.748;2023-04-25T04:41:05;2.67;;;1.00;;
15126;SDS011;7664;52.008;4.748;2023-04-25T04:43:53;7.68;;;1.48;;
15126;SDS011;7664;52.008;4.748;2023-04-25T04:46:48;9.45;;;1.40;;
15126;SDS011;7664;52.008;4.748;2023-04-25T04:49:35;3.80;;;1.88;;
15126;SDS011;7664;52.008;4.748;2023-04-25T04:52:19;5.03;;;1.13;;
15126;SDS011;7664;52.008;4.748;2023-04-25T04:54:54;2.55;;;0.98;;
15126;SDS011;7664;52.008;4.748;2023-04-25T04:57:43;5.93;;;1.40;;
15126;SDS011;7664;52.008;4.748;2023-04-25T05:00:22;4.30;;;1.25;;
15126;SDS011;7664;52.008;4.748;2023-04-25T05:03:14;9.93;;;1.27;;
15126;SDS011;7664;52.008;4.748;2023-04-25T05:06:01;2.75;;;1.02;;
15126;SDS011;7664;52.008;4.748;2023-04-25T05:08:43;2.72;;;1.00;;
15126;SDS011;7664;52.008;4.748;2023-04-25T05:11:34;10.93;;;1.40;;
15126;SDS011;7664;52.008;4.748;2023-04-25T05:14:23;2.83;;;1.38;;
15126;SDS011;7664;52.008;4.748;2023-04-25T05:17:05;4.88;;;1.10;;
15126;SDS011;7664;52.008;4.748;2023-04-25T05:20:00;6.25;;;1.50;;
15126;SDS011;7664;52.008;4.748;2023-04-25T05:22:51;6.75;;;1.40;;
15126;SDS011;7664;52.008;4.748;2023-04-25T05:25:33;4.47;;;1.13;;
15126;SDS011;7664;52.008;4.748;2023-04-25T05:28:08;5.65;;;1.17;;
15126;SDS011;7664;52.008;4.748;2023-04-25T05:30:50;6.72;;;1.27;;
15126;SDS011;7664;52.008;4.748;2023-04-25T05:33:27;8.23;;;1.50;;
15126;SDS011;7664;52.008;4.748;2023-04-25T05:35:56;4.35;;;1.27;;
15126;SDS011;7664;52.008;4.748;2023-04-25T05:38:25;5.28;;;1.13;;
15126;SDS011;7664;52.008;4.748;2023-04-25T05:41:12;5.53;;;1.10;;
15126;SDS011;7664;52.008;4.748;2023-04-25T05:44:10;4.18;;;1.30;;
15126;SDS011;7664;52.008;4.748;2023-04-25T05:46:49;7.72;;;1.98;;
15126;SDS011;7664;52.008;4.748;2023-04-25T05:49:37;9.95;;;2.08;;
15126;SDS011;7664;52.008;4.748;2023-04-25T05:52:19;2.20;;;0.88;;
15126;SDS011;7664;52.008;4.748;2023-04-25T05:54:55;6.65;;;1.05;;
15126;SDS011;7664;52.008;4.748;2023-04-25T05:57:24;4.43;;;0.77;;
15126;SDS011;7664;52.008;4.748;2023-04-25T05:59:58;4.82;;;1.35;;
15126;SDS011;7664;52.008;4.748;2023-04-25T06:02:48;4.80;;;0.95;;
15126;SDS011;7664;52.008;4.748;2023-04-25T06:05:17;5.25;;;1.30;;
15126;SDS011;7664;52.008;4.748;2023-04-25T06:07:53;3.08;;;0.77;;
15126;SDS011;7664;52.008;4.748;2023-04-25T06:10:25;7.82;;;1.45;;
15126;SDS011;7664;52.008;4.748;2023-04-25T06:12:53;2.83;;;0.85;;
15126;SDS011;7664;52.008;4.748;2023-04-25T06:15:23;8.20;;;1.38;;
15126;SDS011;7664;52.008;4.748;2023-04-25T06:17:56;4.97;;;1.15;;
15126;SDS011;7664;52.008;4.748;2023-04-25T06:20:25;4.15;;;1.15;;
15126;SDS011;7664;52.008;4.748;2023-04-25T06:22:57;4.82;;;1.20;;
15126;SDS011;7664;52.008;4.748;2023-04-25T06:25:42;3.30;;;1.20;;
15126;SDS011;7664;52.008;4.748;2023-04-25T06:28:10;3.58;;;1.08;;
15126;SDS011;7664;52.008;4.748;2023-04-25T06:30:39;2.90;;;0.93;;
15126;SDS011;7664;52.008;4.748;2023-04-25T06:33:13;7.50;;;0.82;;
15126;SDS011;7664;52.008;4.748;2023-04-25T06:35:42;3.75;;;0.90;;
15126;SDS011;7664;52.008;4.748;2023-04-25T06:38:12;2.83;;;0.90;;
15126;SDS011;7664;52.008;4.748;2023-04-25T06:40:45;2.20;;;0.95;;
15126;SDS011;7664;52.008;4.748;2023-04-25T06:43:13;2.92;;;0.52;;
15126;SDS011;7664;52.008;4.748;2023-04-25T06:46:05;5.03;;;1.00;;
15126;SDS011;7664;52.008;4.748;2023-04-25T06:48:41;8.98;;;1.30;;
15126;SDS011;7664;52.008;4.748;2023-04-25T06:51:10;1.98;;;0.77;;
15126;SDS011;7664;52.008;4.748;2023-04-25T06:53:40;3.45;;;1.05;;
15126;SDS011;7664;52.008;4.748;2023-04-25T06:56:20;3.95;;;1.10;;
15126;SDS011;7664;52.008;4.748;2023-04-25T06:58:59;3.80;;;0.73;;
15126;SDS011;7664;52.008;4.748;2023-04-25T07:01:31;6.38;;;1.50;;
15126;SDS011;7664;52.008;4.748;2023-04-25T07:04:05;3.05;;;0.95;;
15126;SDS011;7664;52.008;4.748;2023-04-25T07:06:39;4.15;;;0.88;;
15126;SDS011;7664;52.008;4.748;2023-04-25T07:09:09;2.08;;;0.65;;
15126;SDS011;7664;52.008;4.748;2023-04-25T07:11:40;4.45;;;0.82;;
15126;SDS011;7664;52.008;4.748;2023-04-25T07:14:09;4.63;;;1.33;;
15126;SDS011;7664;52.008;4.748;2023-04-25T07:16:37;6.45;;;1.23;;
15126;SDS011;7664;52.008;4.748;2023-04-25T07:19:08;5.18;;;1.35;;
15126;SDS011;7664;52.008;4.748;2023-04-25T07:21:37;6.38;;;1.65;;
15126;SDS011;7664;52.008;4.748;2023-04-25T07:24:05;1.85;;;0.63;;
15126;SDS011;7664;52.008;4.748;2023-04-25T07:26:39;3.53;;;0.98;;
15126;SDS011;7664;52.008;4.748;2023-04-25T07:29:34;4.20;;;1.05;;
15126;SDS011;7664;52.008;4.748;2023-04-25T07:32:03;6.80;;;0.80;;
15126;SDS011;7664;52.008;4.748;2023-04-25T07:34:36;3.47;;;0.65;;
15126;SDS011;7664;52.008;4.748;2023-04-25T07:37:05;4.15;;;1.38;;
15126;SDS011;7664;52.008;4.748;2023-04-25T07:39:43;7.65;;;1.10;;
15126;SDS011;7664;52.008;4.748;2023-04-25T07:42:12;3.97;;;0.77;;
15126;SDS011;7664;52.008;4.748;2023-04-25T07:44:43;1.85;;;0.73;;
15126;SDS011;7664;52.008;4.748;2023-04-25T07:47:13;4.28;;;1.00;;
15126;SDS011;7664;52.008;4.748;2023-04-25T07:49:43;5.05;;;0.80;;
15126;SDS011;7664;52.008;4.748;2023-04-25T07:52:17;2.60;;;0.93;;
15126;SDS011;7664;52.008;4.748;2023-04-25T07:54:52;3.00;;;1.23;;
15126;SDS011;7664;52.008;4.748;2023-04-25T07:57:28;6.65;;;1.10;;
15126;SDS011;7664;52.008;4.748;2023-04-25T07:59:57;5.40;;;1.25;;
15126;SDS011;7664;52.008;4.748;2023-04-25T08:02:28;1.88;;;0.85;;
15126;SDS011;7664;52.008;4.748;2023-04-25T08:04:58;5.15;;;1.02;;
15126;SDS011;7664;52.008;4.748;2023-04-25T08:07:27;5.00;;;0.93;;
15126;SDS011;7664;52.008;4.748;2023-04-25T08:10:01;2.50;;;1.05;;
15126;SDS011;7664;52.008;4.748;2023-04-25T08:12:34;3.95;;;0.90;;
15126;SDS011;7664;52.008;4.748;2023-04-25T08:15:05;1.70;;;0.85;;
15126;SDS011;7664;52.008;4.748;2023-04-25T08:17:38;3.47;;;0.90;;
15126;SDS011;7664;52.008;4.748;2023-04-25T08:20:13;3.03;;;0.85;;
15126;SDS011;7664;52.008;4.748;2023-04-25T08:22:42;1.40;;;0.47;;
15126;SDS011;7664;52.008;4.748;2023-04-25T08:25:22;3.47;;;1.55;;
15126;SDS011;7664;52.008;4.748;2023-04-25T08:27:50;1.42;;;0.47;;
15126;SDS011;7664;52.008;4.748;2023-04-25T08:30:21;1.67;;;0.50;;
15126;SDS011;7664;52.008;4.748;2023-04-25T08:32:54;4.57;;;1.00;;
15126;SDS011;7664;52.008;4.748;2023-04-25T08:35:37;6.05;;;1.10;;
15126;SDS011;7664;52.008;4.748;2023-04-25T08:38:08;4.63;;;0.82;;
15126;SDS011;7664;52.008;4.748;2023-04-25T08:40:39;2.95;;;1.10;;
15126;SDS011;7664;52.008;4.748;2023-04-25T08:43:13;3.25;;;1.02;;
15126;SDS011;7664;52.008;4.748;2023-04-25T08:45:42;2.85;;;0.90;;
15126;SDS011;7664;52.008;4.748;2023-04-25T08:48:19;2.42;;;0.50;;
15126;SDS011;7664;52.008;4.748;2023-04-25T08:50:51;1.60;;;0.40;;
15126;SDS011;7664;52.008;4.748;2023-04-25T08:53:25;1.63;;;0.57;;
15126;SDS011;7664;52.008;4.748;2023-04-25T08:55:56;1.77;;;0.80;;
15126;SDS011;7664;52.008;4.748;2023-04-25T08:58:25;3.22;;;0.82;;
15126;SDS011;7664;52.008;4.748;2023-04-25T09:01:00;2.90;;;0.90;;
15126;SDS011;7664;52.008;4.748;2023-04-25T09:03:32;1.95;;;0.73;;
15126;SDS011;7664;52.008;4.748;2023-04-25T09:06:05;2.42;;;0.70;;
15126;SDS011;7664;52.008;4.748;2023-04-25T09:08:36;1.20;;;0.65;;
15126;SDS011;7664;52.008;4.748;2023-04-25T09:11:06;6.13;;;0.88;;
15126;SDS011;7664;52.008;4.748;2023-04-25T09:13:35;3.00;;;0.80;;
15126;SDS011;7664;52.008;4.748;2023-04-25T09:16:23;2.72;;;0.63;;
15126;SDS011;7664;52.008;4.748;2023-04-25T09:19:17;2.85;;;0.65;;
15126;SDS011;7664;52.008;4.748;2023-04-25T09:22:21;3.83;;;0.82;;
15126;SDS011;7664;52.008;4.748;2023-04-25T09:24:50;1.98;;;0.57;;
15126;SDS011;7664;52.008;4.748;2023-04-25T09:27:21;2.00;;;0.57;;
15126;SDS011;7664;52.008;4.748;2023-04-25T09:30:01;1.88;;;0.90;;
15126;SDS011;7664;52.008;4.748;2023-04-25T09:32:50;3.05;;;0.75;;
15126;SDS011;7664;52.008;4.748;2023-04-25T09:35:25;3.85;;;0.70;;
15126;SDS011;7664;52.008;4.748;2023-04-25T09:37:57;2.15;;;0.50;;
15126;SDS011;7664;52.008;4.748;2023-04-25T09:40:48;3.38;;;0.73;;
15126;SDS011;7664;52.008;4.748;2023-04-25T09:43:25;4.70;;;0.70;;
15126;SDS011;7664;52.008;4.748;2023-04-25T09:45:55;1.48;;;0.30;;
15126;SDS011;7664;52.008;4.748;2023-04-25T09:48:27;3.80;;;0.40;;
15126;SDS011;7664;52.008;4.748;2023-04-25T09:51:04;3.78;;;0.80;;
15126;SDS011;7664;52.008;4.748;2023-04-25T09:53:35;1.77;;;0.50;;
15126;SDS011;7664;52.008;4.748;2023-04-25T09:56:16;3.22;;;0.75;;
15126;SDS011;7664;52.008;4.748;2023-04-25T09:58:46;1.23;;;0.40;;
15126;SDS011;7664;52.008;4.748;2023-04-25T10:01:15;1.48;;;0.57;;
15126;SDS011;7664;52.008;4.748;2023-04-25T10:03:58;0.85;;;0.52;;
15126;SDS011;7664;52.008;4.748;2023-04-25T10:06:38;7.75;;;1.35;;
15126;SDS011;7664;52.008;4.748;2023-04-25T10:09:08;2.28;;;0.63;;
15126;SDS011;7664;52.008;4.748;2023-04-25T10:11:37;3.13;;;0.73;;
15126;SDS011;7664;52.008;4.748;2023-04-25T10:14:06;2.90;;;0.98;;
15126;SDS011;7664;52.008;4.748;2023-04-25T10:16:34;1.83;;;0.75;;
15126;SDS011;7664;52.008;4.748;2023-04-25T10:19:03;1.05;;;0.35;;
15126;SDS011;7664;52.008;4.748;2023-04-25T10:21:32;3.17;;;0.77;;
15126;SDS011;7664;52.008;4.748;2023-04-25T10:24:04;2.80;;;0.90;;
15126;SDS011;7664;52.008;4.748;2023-04-25T10:26:34;3.70;;;0.77;;
15126;SDS011;7664;52.008;4.748;2023-04-25T10:29:03;0.60;;;0.32;;
15126;SDS011;7664;52.008;4.748;2023-04-25T10:31:31;3.72;;;0.60;;
15126;SDS011;7664;52.008;4.748;2023-04-25T10:34:01;1.15;;;0.70;;
15126;SDS011;7664;52.008;4.748;2023-04-25T10:36:31;2.35;;;1.10;;
15126;SDS011;7664;52.008;4.748;2023-04-25T10:39:02;4.03;;;0.60;;
15126;SDS011;7664;52.008;4.748;2023-04-25T10:41:52;4.82;;;0.80;;
15126;SDS011;7664;52.008;4.748;2023-04-25T10:44:21;2.70;;;0.68;;
15126;SDS011;7664;52.008;4.748;2023-04-25T10:46:49;5.32;;;0.63;;
15126;SDS011;7664;52.008;4.748;2023-04-25T10:49:31;2.08;;;0.55;;
15126;SDS011;7664;52.008;4.748;2023-04-25T10:52:12;6.38;;;1.27;;
15126;SDS011;7664;52.008;4.748;2023-04-25T10:54:41;2.67;;;1.25;;
15126;SDS011;7664;52.008;4.748;2023-04-25T10:57:27;3.75;;;1.05;;
15126;SDS011;7664;52.008;4.748;2023-04-25T10:59:59;4.30;;;0.75;;
15126;SDS011;7664;52.008;4.748;2023-04-25T11:02:31;3.38;;;0.73;;
15126;SDS011;7664;52.008;4.748;2023-04-25T11:05:00;8.65;;;0.98;;
15126;SDS011;7664;52.008;4.748;2023-04-25T11:07:31;3.38;;;0.80;;
15126;SDS011;7664;52.008;4.748;2023-04-25T11:10:04;3.65;;;0.70;;
15126;SDS011;7664;52.008;4.748;2023-04-25T11:12:41;2.97;;;0.60;;
15126;SDS011;7664;52.008;4.748;2023-04-25T11:15:09;2.65;;;0.73;;
15126;SDS011;7664;52.008;4.748;2023-04-25T11:17:38;4.30;;;0.60;;
15126;SDS011;7664;52.008;4.748;2023-04-25T11:20:11;3.90;;;0.93;;
15126;SDS011;7664;52.008;4.748;2023-04-25T11:22:41;3.78;;;0.70;;
15126;SDS011;7664;52.008;4.748;2023-04-25T11:25:10;5.97;;;0.75;;
15126;SDS011;7664;52.008;4.748;2023-04-25T11:27:39;6.57;;;1.33;;
15126;SDS011;7664;52.008;4.748;2023-04-25T11:30:19;5.43;;;0.93;;
15126;SDS011;7664;52.008;4.748;2023-04-25T11:32:50;3.85;;;0.82;;
15126;SDS011;7664;52.008;4.748;2023-04-25T11:35:21;4.35;;;0.98;;
15126;SDS011;7664;52.008;4.748;2023-04-25T11:37:51;4.22;;;0.93;;
15126;SDS011;7664;52.008;4.748;2023-04-25T11:40:20;4.25;;;0.65;;
15126;SDS011;7664;52.008;4.748;2023-04-25T11:42:48;5.05;;;0.65;;
15126;SDS011;7664;52.008;4.748;2023-04-25T11:45:38;5.15;;;1.08;;
15126;SDS011;7664;52.008;4.748;2023-04-25T11:48:07;5.75;;;1.25;;
15126;SDS011;7664;52.008;4.748;2023-04-25T11:50:35;2.28;;;0.68;;
15126;SDS011;7664;52.008;4.748;2023-04-25T11:53:07;0.75;;;0.52;;
15126;SDS011;7664;52.008;4.748;2023-04-25T11:55:37;1.45;;;0.70;;
15126;SDS011;7664;52.008;4.748;2023-04-25T11:58:08;2.90;;;0.93;;
15126;SDS011;7664;52.008;4.748;2023-04-25T12:00:38;5.40;;;0.70;;
15126;SDS011;7664;52.008;4.748;2023-04-25T12:03:17;3.47;;;1.00;;
15126;SDS011;7664;52.008;4.748;2023-04-25T12:05:49;4.03;;;0.90;;
15126;SDS011;7664;52.008;4.748;2023-04-25T12:08:18;5.60;;;1.15;;
15126;SDS011;7664;52.008;4.748;2023-04-25T12:10:49;2.90;;;0.77;;
15126;SDS011;7664;52.008;4.748;2023-04-25T12:13:21;2.00;;;0.57;;
15126;SDS011;7664;52.008;4.748;2023-04-25T12:15:51;2.22;;;0.77;;
15126;SDS011;7664;52.008;4.748;2023-04-25T12:18:22;4.80;;;0.60;;
15126;SDS011;7664;52.008;4.748;2023-04-25T12:20:52;1.30;;;0.70;;
15126;SDS011;7664;52.008;4.748;2023-04-25T12:23:24;3.63;;;1.02;;
15126;SDS011;7664;52.008;4.748;2023-04-25T12:25:56;1.83;;;0.70;;
15126;SDS011;7664;52.008;4.748;2023-04-25T12:28:25;1.13;;;0.63;;
15126;SDS011;7664;52.008;4.748;2023-04-25T12:30:59;2.75;;;0.55;;
15126;SDS011;7664;52.008;4.748;2023-04-25T12:33:29;3.35;;;0.70;;
15126;SDS011;7664;52.008;4.748;2023-04-25T12:35:57;3.88;;;0.77;;
15126;SDS011;7664;52.008;4.748;2023-04-25T12:38:28;3.70;;;0.82;;
15126;SDS011;7664;52.008;4.748;2023-04-25T12:40:57;1.77;;;0.63;;
15126;SDS011;7664;52.008;4.748;2023-04-25T12:43:26;3.97;;;1.15;;
15126;SDS011;7664;52.008;4.748;2023-04-25T12:45:55;6.13;;;1.08;;
15126;SDS011;7664;52.008;4.748;2023-04-25T12:48:25;3.75;;;0.73;;
15126;SDS011;7664;52.008;4.748;2023-04-25T12:50:54;3.30;;;0.75;;
15126;SDS011;7664;52.008;4.748;2023-04-25T12:53:22;2.25;;;0.80;;
15126;SDS011;7664;52.008;4.748;2023-04-25T12:55:51;3.08;;;0.80;;
15126;SDS011;7664;52.008;4.748;2023-04-25T12:58:20;2.95;;;0.77;;
15126;SDS011;7664;52.008;4.748;2023-04-25T13:00:49;2.60;;;0.98;;
15126;SDS011;7664;52.008;4.748;2023-04-25T13:03:20;2.92;;;1.13;;
15126;SDS011;7664;52.008;4.748;2023-04-25T13:05:53;2.97;;;0.50;;
15126;SDS011;7664;52.008;4.748;2023-04-25T13:08:23;2.30;;;1.00;;
15126;SDS011;7664;52.008;4.748;2023-04-25T13:10:52;4.55;;;0.90;;
15126;SDS011;7664;52.008;4.748;2023-04-25T13:13:21;2.25;;;1.10;;
15126;SDS011;7664;52.008;4.748;2023-04-25T13:15:49;2.47;;;0.95;;
15126;SDS011;7664;52.008;4.748;2023-04-25T13:18:18;5.32;;;1.08;;
15126;SDS011;7664;52.008;4.748;2023-04-25T13:20:47;4.50;;;0.80;;
15126;SDS011;7664;52.008;4.748;2023-04-25T13:23:17;3.60;;;0.88;;
15126;SDS011;7664;52.008;4.748;2023-04-25T13:25:45;3.85;;;0.65;;
15126;SDS011;7664;52.008;4.748;2023-04-25T13:28:16;2.08;;;0.70;;
15126;SDS011;7664;52.008;4.748;2023-04-25T13:30:44;4.68;;;0.90;;
15126;SDS011;7664;52.008;4.748;2023-04-25T13:33:14;3.03;;;0.70;;
15126;SDS011;7664;52.008;4.748;2023-04-25T13:35:42;3.40;;;0.65;;
15126;SDS011;7664;52.008;4.748;2023-04-25T13:38:13;2.90;;;0.95;;
15126;SDS011;7664;52.008;4.748;2023-04-25T13:40:51;1.63;;;0.82;;
15126;SDS011;7664;52.008;4.748;2023-04-25T13:43:19;4.35;;;0.90;;
15126;SDS011;7664;52.008;4.748;2023-04-25T13:45:50;1.85;;;0.90;;
15126;SDS011;7664;52.008;4.748;2023-04-25T13:48:19;5.13;;;1.13;;
15126;SDS011;7664;52.008;4.748;2023-04-25T13:50:52;3.22;;;1.40;;
15126;SDS011;7664;52.008;4.748;2023-04-25T13:53:20;4.03;;;1.05;;
15126;SDS011;7664;52.008;4.748;2023-04-25T13:55:48;4.55;;;1.00;;
15126;SDS011;7664;52.008;4.748;2023-04-25T13:58:18;4.65;;;1.00;;
15126;SDS011;7664;52.008;4.748;2023-04-25T14:00:47;7.88;;;1.10;;
15126;SDS011;7664;52.008;4.748;2023-04-25T14:03:15;6.18;;;1.13;;
15126;SDS011;7664;52.008;4.748;2023-04-25T14:05:46;2.70;;;0.68;;
15126;SDS011;7664;52.008;4.748;2023-04-25T14:08:17;1.90;;;0.88;;
15126;SDS011;7664;52.008;4.748;2023-04-25T14:10:50;4.72;;;1.30;;
15126;SDS011;7664;52.008;4.748;2023-04-25T14:13:22;5.93;;;1.00;;
15126;SDS011;7664;52.008;4.748;2023-04-25T14:15:51;2.33;;;0.85;;
15126;SDS011;7664;52.008;4.748;2023-04-25T14:18:27;6.05;;;1.30;;
15126;SDS011;7664;52.008;4.748;2023-04-25T14:20:57;5.30;;;0.88;;
15126;SDS011;7664;52.008;4.748;2023-04-25T14:23:26;2.70;;;0.50;;
15126;SDS011;7664;52.008;4.748;2023-04-25T14:25:57;2.75;;;0.68;;
15126;SDS011;7664;52.008;4.748;2023-04-25T14:28:26;2.05;;;1.10;;
15126;SDS011;7664;52.008;4.748;2023-04-25T14:30:55;7.93;;;1.50;;
15126;SDS011;7664;52.008;4.748;2023-04-25T14:33:26;5.05;;;1.63;;
15126;SDS011;7664;52.008;4.748;2023-04-25T14:35:57;6.00;;;0.90;;
15126;SDS011;7664;52.008;4.748;2023-04-25T14:38:28;3.38;;;0.98;;
15126;SDS011;7664;52.008;4.748;2023-04-25T14:40:57;2.03;;;1.02;;
15126;SDS011;7664;52.008;4.748;2023-04-25T14:43:27;5.78;;;0.80;;
15126;SDS011;7664;52.008;4.748;2023-04-25T14:45:55;5.18;;;1.38;;
15126;SDS011;7664;52.008;4.748;2023-04-25T14:48:24;3.63;;;1.10;;
15126;SDS011;7664;52.008;4.748;2023-04-25T14:50:52;5.78;;;0.70;;
15126;SDS011;7664;52.008;4.748;2023-04-25T14:53:26;4.80;;;0.88;;
15126;SDS011;7664;52.008;4.748;2023-04-25T14:55:55;1.42;;;0.77;;
15126;SDS011;7664;52.008;4.748;2023-04-25T14:58:27;3.08;;;0.52;;
15126;SDS011;7664;52.008;4.748;2023-04-25T15:00:55;5.38;;;1.10;;
15126;SDS011;7664;52.008;4.748;2023-04-25T15:03:24;4.93;;;0.82;;
15126;SDS011;7664;52.008;4.748;2023-04-25T15:05:54;8.25;;;0.93;;
15126;SDS011;7664;52.008;4.748;2023-04-25T15:08:25;3.85;;;0.90;;
15126;SDS011;7664;52.008;4.748;2023-04-25T15:10:54;5.50;;;1.23;;
15126;SDS011;7664;52.008;4.748;2023-04-25T15:13:22;4.50;;;0.90;;
15126;SDS011;7664;52.008;4.748;2023-04-25T15:15:52;4.15;;;1.00;;
15126;SDS011;7664;52.008;4.748;2023-04-25T15:18:21;3.08;;;0.80;;
15126;SDS011;7664;52.008;4.748;2023-04-25T15:20:50;1.73;;;0.70;;
15126;SDS011;7664;52.008;4.748;2023-04-25T15:23:19;3.47;;;1.08;;
15126;SDS011;7664;52.008;4.748;2023-04-25T15:25:49;5.07;;;1.42;;
15126;SDS011;7664;52.008;4.748;2023-04-25T15:28:22;2.53;;;0.85;;
15126;SDS011;7664;52.008;4.748;2023-04-25T15:30:50;4.13;;;1.02;;
15126;SDS011;7664;52.008;4.748;2023-04-25T15:33:20;5.70;;;1.15;;